sensor_id;sensor_type;location;lat;lon;timestamp;pressure;altitude;pressure_sealevel;temperature;humidity
50590;BME280;36547;50.514;30.840;2023-04-29T00:00:03;100249.78;;;7.70;52.39
50590;BME280;36547;50.514;30.840;2023-04-29T00:01:07;100253.13;;;7.75;52.28
50590;BME280;36547;50.514;30.840;2023-04-29T00:02:09;100251.41;;;7.74;52.02
50590;BME280;36547;50.514;30.840;2023-04-29T00:03:12;100241.69;;;7.75;52.10
50590;BME280;36547;50.514;30.840;2023-04-29T00:04:15;100244.22;;;7.78;51.98
50590;BME280;36547;50.514;30.840;2023-04-29T00:05:18;100251.29;;;7.77;52.34
50590;BME280;36547;50.514;30.840;2023-04-29T00:06:21;100255.66;;;7.78;52.22
50590;BME280;36547;50.514;30.840;2023-04-29T00:07:23;100253.19;;;7.74;52.52
50590;BME280;36547;50.514;30.840;2023-04-29T00:08:25;100254.86;;;7.76;52.63
50590;BME280;36547;50.514;30.840;2023-04-29T00:09:27;100248.76;;;7.74;52.89
50590;BME280;36547;50.514;30.840;2023-04-29T00:10:30;100253.99;;;7.76;53.05
50590;BME280;36547;50.514;30.840;2023-04-29T00:11:32;100245.25;;;7.74;53.07
50590;BME280;36547;50.514;30.840;2023-04-29T00:12:34;100246.00;;;7.77;53.23
50590;BME280;36547;50.514;30.840;2023-04-29T00:13:37;100247.84;;;7.75;53.29
50590;BME280;36547;50.514;30.840;2023-04-29T00:14:39;100253.13;;;7.75;53.25
50590;BME280;36547;50.514;30.840;2023-04-29T00:15:42;100238.93;;;7.78;53.19
50590;BME280;36547;50.514;30.840;2023-04-29T00:16:44;100236.28;;;7.78;52.94
50590;BME280;36547;50.514;30.840;2023-04-29T00:17:46;100242.44;;;7.78;53.11
50590;BME280;36547;50.514;30.840;2023-04-29T00:18:49;100233.70;;;7.76;53.07
50590;BME280;36547;50.514;30.840;2023-04-29T00:19:51;100238.13;;;7.76;53.04
50590;BME280;36547;50.514;30.840;2023-04-29T00:20:54;100243.47;;;7.74;53.01
50590;BME280;36547;50.514;30.840;2023-04-29T00:21:56;100241.05;;;7.68;53.32
50590;BME280;36547;50.514;30.840;2023-04-29T00:22:59;100239.38;;;7.66;52.98
50590;BME280;36547;50.514;30.840;2023-04-29T00:24:02;100243.02;;;7.63;53.16
50590;BME280;36547;50.514;30.840;2023-04-29T00:25:05;100243.02;;;7.63;53.21
50590;BME280;36547;50.514;30.840;2023-04-29T00:26:08;100239.58;;;7.61;53.20
50590;BME280;36547;50.514;30.840;2023-04-29T00:27:11;100242.22;;;7.61;53.14
50590;BME280;36547;50.514;30.840;2023-04-29T00:28:13;100242.16;;;7.63;53.02
50590;BME280;36547;50.514;30.840;2023-04-29T00:29:15;100243.95;;;7.62;53.16
50590;BME280;36547;50.514;30.840;2023-04-29T00:30:18;100247.62;;;7.58;52.95
50590;BME280;36547;50.514;30.840;2023-04-29T00:31:21;100243.14;;;7.60;52.90
50590;BME280;36547;50.514;30.840;2023-04-29T00:32:23;100245.08;;;7.55;52.69
50590;BME280;36547;50.514;30.840;2023-04-29T00:33:26;100246.91;;;7.53;52.84
50590;BME280;36547;50.514;30.840;2023-04-29T00:34:28;100241.77;;;7.50;52.95
50590;BME280;36547;50.514;30.840;2023-04-29T00:35:30;100248.89;;;7.48;53.06
50590;BME280;36547;50.514;30.840;2023-04-29T00:36:32;100246.41;;;7.43;52.99
50590;BME280;36547;50.514;30.840;2023-04-29T00:37:35;100241.18;;;7.42;52.94
50590;BME280;36547;50.514;30.840;2023-04-29T00:38:37;100249.11;;;7.42;53.28
50590;BME280;36547;50.514;30.840;2023-04-29T00:39:39;100248.25;;;7.41;53.18
50590;BME280;36547;50.514;30.840;2023-04-29T00:40:42;100243.93;;;7.39;52.93
50590;BME280;36547;50.514;30.840;2023-04-29T00:41:45;100244.84;;;7.38;53.07
50590;BME280;36547;50.514;30.840;2023-04-29T00:42:48;100248.36;;;7.38;52.89
50590;BME280;36547;50.514;30.840;2023-04-29T00:43:51;100243.93;;;7.39;52.95
50590;BME280;36547;50.514;30.840;2023-04-29T00:44:53;100243.20;;;7.35;53.07
50590;BME280;36547;50.514;30.840;2023-04-29T00:45:55;100245.77;;;7.37;53.13
50590;BME280;36547;50.514;30.840;2023-04-29T00:46:58;100245.77;;;7.37;53.28
50590;BME280;36547;50.514;30.840;2023-04-29T00:48:01;100245.77;;;7.37;53.46
50590;BME280;36547;50.514;30.840;2023-04-29T00:49:03;100236.05;;;7.37;53.12
50590;BME280;36547;50.514;30.840;2023-04-29T00:50:06;100237.83;;;7.37;53.05
50590;BME280;36547;50.514;30.840;2023-04-29T00:51:09;100245.91;;;7.34;53.24
50590;BME280;36547;50.514;30.840;2023-04-29T00:52:12;100235.33;;;7.34;53.36
50590;BME280;36547;50.514;30.840;2023-04-29T00:53:16;100238.03;;;7.32;53.27
50590;BME280;36547;50.514;30.840;2023-04-29T00:54:19;100236.25;;;7.33;53.39
50590;BME280;36547;50.514;30.840;2023-04-29T00:55:22;100243.31;;;7.32;53.11
50590;BME280;36547;50.514;30.840;2023-04-29T00:56:28;100244.17;;;7.33;53.36
50590;BME280;36547;50.514;30.840;2023-04-29T00:57:33;100242.55;;;7.29;53.38
50590;BME280;36547;50.514;30.840;2023-04-29T00:58:36;100239.00;;;7.30;53.68
50590;BME280;36547;50.514;30.840;2023-04-29T00:59:38;100246.11;;;7.28;53.60
50590;BME280;36547;50.514;30.840;2023-04-29T01:00:41;100254.09;;;7.26;53.31
50590;BME280;36547;50.514;30.840;2023-04-29T01:01:44;100253.28;;;7.24;53.51
50590;BME280;36547;50.514;30.840;2023-04-29T01:02:48;100253.23;;;7.26;53.55
50590;BME280;36547;50.514;30.840;2023-04-29T01:03:51;100254.96;;;7.27;53.70
50590;BME280;36547;50.514;30.840;2023-04-29T01:04:55;100262.19;;;7.22;53.52
50590;BME280;36547;50.514;30.840;2023-04-29T01:06:07;100258.70;;;7.21;53.57
50590;BME280;36547;50.514;30.840;2023-04-29T01:09:03;100254.61;;;7.36;53.81
50590;BME280;36547;50.514;30.840;2023-04-29T01:10:21;100253.48;;;7.20;54.13
50590;BME280;36547;50.514;30.840;2023-04-29T01:11:27;100257.90;;;7.19;53.78
50590;BME280;36547;50.514;30.840;2023-04-29T01:12:32;100264.91;;;7.20;53.66
50590;BME280;36547;50.514;30.840;2023-04-29T01:13:50;100261.66;;;7.12;53.76
50590;BME280;36547;50.514;30.840;2023-04-29T01:15:20;100265.22;;;7.11;54.21
50590;BME280;36547;50.514;30.840;2023-04-29T01:16:24;100260.91;;;7.08;54.32
50590;BME280;36547;50.514;30.840;2023-04-29T01:17:30;100267.05;;;7.09;54.04
50590;BME280;36547;50.514;30.840;2023-04-29T01:18:36;100267.91;;;7.09;54.21
50590;BME280;36547;50.514;30.840;2023-04-29T01:19:51;100262.77;;;7.06;54.42
50590;BME280;36547;50.514;30.840;2023-04-29T01:20:57;100262.77;;;7.06;54.32
50590;BME280;36547;50.514;30.840;2023-04-29T01:22:00;100262.68;;;7.08;54.16
50590;BME280;36547;50.514;30.840;2023-04-29T01:23:03;100264.59;;;7.04;54.23
50590;BME280;36547;50.514;30.840;2023-04-29T01:24:05;100257.69;;;7.00;54.18
50590;BME280;36547;50.514;30.840;2023-04-29T01:25:08;100255.09;;;6.99;54.45
50590;BME280;36547;50.514;30.840;2023-04-29T01:26:12;100263.98;;;6.96;54.52
50590;BME280;36547;50.514;30.840;2023-04-29T01:27:38;100265.86;;;6.93;54.79
50590;BME280;36547;50.514;30.840;2023-04-29T01:33:22;100275.16;;;7.04;54.82
50590;BME280;36547;50.514;30.840;2023-04-29T01:37:37;100265.95;;;6.91;55.00
50590;BME280;36547;50.514;30.840;2023-04-29T01:38:49;100271.23;;;6.91;55.08
50590;BME280;36547;50.514;30.840;2023-04-29T01:40:17;100279.02;;;6.94;55.15
50590;BME280;36547;50.514;30.840;2023-04-29T01:41:45;100270.31;;;6.92;55.19
50590;BME280;36547;50.514;30.840;2023-04-29T01:43:02;100276.33;;;6.96;55.05
50590;BME280;36547;50.514;30.840;2023-04-29T01:44:07;100273.73;;;6.94;55.22
50590;BME280;36547;50.514;30.840;2023-04-29T01:45:16;100282.58;;;6.93;54.99
50590;BME280;36547;50.514;30.840;2023-04-29T01:46:19;100281.80;;;6.91;54.80
50590;BME280;36547;50.514;30.840;2023-04-29T01:47:23;100281.99;;;6.85;54.82
50590;BME280;36547;50.514;30.840;2023-04-29T01:48:28;100282.09;;;6.82;55.03
50590;BME280;36547;50.514;30.840;2023-04-29T01:49:34;100282.91;;;6.84;55.56
50590;BME280;36547;50.514;30.840;2023-04-29T01:50:36;100278.54;;;6.83;55.48
50590;BME280;36547;50.514;30.840;2023-04-29T01:51:50;100290.11;;;6.79;55.45
50590;BME280;36547;50.514;30.840;2023-04-29T01:52:53;100286.56;;;6.80;55.27
50590;BME280;36547;50.514;30.840;2023-04-29T01:53:55;100292.70;;;6.81;55.67
50590;BME280;36547;50.514;30.840;2023-04-29T01:54:57;100290.24;;;6.76;55.32
50590;BME280;36547;50.514;30.840;2023-04-29T01:56:02;100295.53;;;6.76;55.20
50590;BME280;36547;50.514;30.840;2023-04-29T01:57:06;100297.35;;;6.74;55.47
50590;BME280;36547;50.514;30.840;2023-04-29T01:58:12;100286.02;;;6.70;55.72
50590;BME280;36547;50.514;30.840;2023-04-29T01:59:19;100290.44;;;6.70;55.84
50590;BME280;36547;50.514;30.840;2023-04-29T02:00:29;100292.27;;;6.68;55.93
50590;BME280;36547;50.514;30.840;2023-04-29T02:01:31;100296.77;;;6.64;55.98
50590;BME280;36547;50.514;30.840;2023-04-29T02:02:34;100295.08;;;6.63;56.03
50590;BME280;36547;50.514;30.840;2023-04-29T02:03:39;100287.98;;;6.64;56.19
50590;BME280;36547;50.514;30.840;2023-04-29T02:04:43;100288.12;;;6.61;55.93
50590;BME280;36547;50.514;30.840;2023-04-29T02:05:45;100290.90;;;6.56;55.87
50590;BME280;36547;50.514;30.840;2023-04-29T02:06:48;100293.54;;;6.56;56.03
50590;BME280;36547;50.514;30.840;2023-04-29T02:07:51;100287.45;;;6.54;55.98
50590;BME280;36547;50.514;30.840;2023-04-29T02:08:54;100294.72;;;6.48;55.95
50590;BME280;36547;50.514;30.840;2023-04-29T02:09:56;100296.32;;;6.52;56.16
50590;BME280;36547;50.514;30.840;2023-04-29T02:10:59;100292.86;;;6.50;56.45
50590;BME280;36547;50.514;30.840;2023-04-29T02:12:06;100300.05;;;6.46;56.21
50590;BME280;36547;50.514;30.840;2023-04-29T02:13:08;100294.72;;;6.48;56.29
50590;BME280;36547;50.514;30.840;2023-04-29T02:14:11;100296.45;;;6.49;56.31
50590;BME280;36547;50.514;30.840;2023-04-29T02:15:14;100301.73;;;6.49;56.16
50590;BME280;36547;50.514;30.840;2023-04-29T02:16:17;100290.30;;;6.48;56.21
50590;BME280;36547;50.514;30.840;2023-04-29T02:17:32;100297.36;;;6.48;56.36
50590;BME280;36547;50.514;30.840;2023-04-29T02:18:36;100294.81;;;6.45;56.22
50590;BME280;36547;50.514;30.840;2023-04-29T02:19:39;100293.95;;;6.44;56.53
50590;BME280;36547;50.514;30.840;2023-04-29T02:20:42;100289.62;;;6.42;56.61
50590;BME280;36547;50.514;30.840;2023-04-29T02:21:44;100299.23;;;6.44;56.52
50590;BME280;36547;50.514;30.840;2023-04-29T02:22:47;100287.89;;;6.41;56.46
50590;BME280;36547;50.514;30.840;2023-04-29T02:23:49;100289.62;;;6.42;56.58
50590;BME280;36547;50.514;30.840;2023-04-29T02:24:51;100302.01;;;6.39;56.54
50590;BME280;36547;50.514;30.840;2023-04-29T02:25:53;100290.59;;;6.39;56.59
50590;BME280;36547;50.514;30.840;2023-04-29T02:26:55;100302.01;;;6.39;56.55
50590;BME280;36547;50.514;30.840;2023-04-29T02:27:58;100302.09;;;6.36;56.56
50590;BME280;36547;50.514;30.840;2023-04-29T02:29:01;100301.23;;;6.36;56.53
50590;BME280;36547;50.514;30.840;2023-04-29T02:30:03;100302.96;;;6.37;56.69
50590;BME280;36547;50.514;30.840;2023-04-29T02:31:06;100303.95;;;6.34;56.40
50590;BME280;36547;50.514;30.840;2023-04-29T02:32:08;100309.23;;;6.34;56.60
50590;BME280;36547;50.514;30.840;2023-04-29T02:33:12;100307.38;;;6.36;56.51
50590;BME280;36547;50.514;30.840;2023-04-29T02:34:14;100310.92;;;6.35;56.63
50590;BME280;36547;50.514;30.840;2023-04-29T02:35:17;100306.47;;;6.37;56.88
50590;BME280;36547;50.514;30.840;2023-04-29T02:36:19;100314.51;;;6.34;56.71
50590;BME280;36547;50.514;30.840;2023-04-29T02:37:22;100311.74;;;6.37;56.56
50590;BME280;36547;50.514;30.840;2023-04-29T02:38:25;100312.66;;;6.36;56.70
50590;BME280;36547;50.514;30.840;2023-04-29T02:39:27;100307.50;;;6.33;56.80
50590;BME280;36547;50.514;30.840;2023-04-29T02:40:30;100303.09;;;6.34;56.84
50590;BME280;36547;50.514;30.840;2023-04-29T02:41:33;100307.42;;;6.35;56.79
50590;BME280;36547;50.514;30.840;2023-04-29T02:42:36;100310.02;;;6.36;56.82
50590;BME280;36547;50.514;30.840;2023-04-29T02:43:38;100310.92;;;6.35;56.82
50590;BME280;36547;50.514;30.840;2023-04-29T02:44:40;100303.95;;;6.34;56.67
50590;BME280;36547;50.514;30.840;2023-04-29T02:45:43;100311.05;;;6.32;56.64
50590;BME280;36547;50.514;30.840;2023-04-29T02:46:45;100311.91;;;6.33;56.65
50590;BME280;36547;50.514;30.840;2023-04-29T02:47:48;100318.92;;;6.34;56.71
50590;BME280;36547;50.514;30.840;2023-04-29T02:48:50;100318.05;;;6.33;56.53
50590;BME280;36547;50.514;30.840;2023-04-29T02:49:52;100325.16;;;6.31;56.65
50590;BME280;36547;50.514;30.840;2023-04-29T02:50:55;100320.88;;;6.27;56.76
50590;BME280;36547;50.514;30.840;2023-04-29T02:51:57;100323.60;;;6.24;56.68
50590;BME280;36547;50.514;30.840;2023-04-29T02:53:00;100328.02;;;6.24;56.61
50590;BME280;36547;50.514;30.840;2023-04-29T02:54:03;100329.79;;;6.23;56.78
50590;BME280;36547;50.514;30.840;2023-04-29T02:55:06;100328.02;;;6.24;56.90
50590;BME280;36547;50.514;30.840;2023-04-29T02:56:09;100327.36;;;6.17;57.09
50590;BME280;36547;50.514;30.840;2023-04-29T02:57:11;100323.81;;;6.18;57.24
50590;BME280;36547;50.514;30.840;2023-04-29T02:58:13;100325.55;;;6.19;57.02
50590;BME280;36547;50.514;30.840;2023-04-29T02:59:16;100335.19;;;6.20;56.91
50590;BME280;36547;50.514;30.840;2023-04-29T03:00:19;100335.19;;;6.20;56.81
50590;BME280;36547;50.514;30.840;2023-04-29T03:01:21;100340.47;;;6.20;57.07
50590;BME280;36547;50.514;30.840;2023-04-29T03:02:24;100337.88;;;6.19;57.21
50590;BME280;36547;50.514;30.840;2023-04-29T03:03:28;100341.38;;;6.19;57.04
50590;BME280;36547;50.514;30.840;2023-04-29T03:04:30;100338.00;;;6.14;57.05
50590;BME280;36547;50.514;30.840;2023-04-29T03:05:33;100339.00;;;6.10;57.21
50590;BME280;36547;50.514;30.840;2023-04-29T03:06:35;100339.00;;;6.10;57.23
50590;BME280;36547;50.514;30.840;2023-04-29T03:07:38;100338.17;;;6.08;57.21
50590;BME280;36547;50.514;30.840;2023-04-29T03:08:40;100339.16;;;6.06;57.30
50590;BME280;36547;50.514;30.840;2023-04-29T03:09:42;100345.27;;;6.06;57.31
50590;BME280;36547;50.514;30.840;2023-04-29T03:10:45;100338.17;;;6.08;57.27
50590;BME280;36547;50.514;30.840;2023-04-29T03:11:47;100336.56;;;6.04;57.33
50590;BME280;36547;50.514;30.840;2023-04-29T03:12:49;100339.25;;;6.02;57.28
50590;BME280;36547;50.514;30.840;2023-04-29T03:13:51;100341.14;;;5.97;57.58
50590;BME280;36547;50.514;30.840;2023-04-29T03:14:55;100340.20;;;6.00;57.48
50590;BME280;36547;50.514;30.840;2023-04-29T03:15:57;100348.16;;;5.98;57.40
50590;BME280;36547;50.514;30.840;2023-04-29T03:17:00;100342.02;;;5.98;57.17
50590;BME280;36547;50.514;30.840;2023-04-29T03:18:02;100348.23;;;5.95;57.11
50590;BME280;36547;50.514;30.840;2023-04-29T03:19:04;100345.55;;;5.97;57.17
50590;BME280;36547;50.514;30.840;2023-04-29T03:20:07;100350.88;;;5.95;57.37
50590;BME280;36547;50.514;30.840;2023-04-29T03:21:10;100340.37;;;5.94;57.62
50590;BME280;36547;50.514;30.840;2023-04-29T03:22:12;100348.28;;;5.94;57.68
50590;BME280;36547;50.514;30.840;2023-04-29T03:23:16;100345.64;;;5.94;57.47
50590;BME280;36547;50.514;30.840;2023-04-29T03:24:18;100355.37;;;5.92;57.66
50590;BME280;36547;50.514;30.840;2023-04-29T03:25:21;100361.58;;;5.91;57.79
50590;BME280;36547;50.514;30.840;2023-04-29T03:26:23;100356.31;;;5.91;57.76
50590;BME280;36547;50.514;30.840;2023-04-29T03:27:26;100360.72;;;5.90;57.91
50590;BME280;36547;50.514;30.840;2023-04-29T03:28:28;100364.06;;;5.95;57.99
50590;BME280;36547;50.514;30.840;2023-04-29T03:29:31;100361.38;;;5.97;58.02
50590;BME280;36547;50.514;30.840;2023-04-29T03:30:34;100370.20;;;5.96;57.61
50590;BME280;36547;50.514;30.840;2023-04-29T03:31:36;100356.02;;;6.00;57.76
50590;BME280;36547;50.514;30.840;2023-04-29T03:32:39;100362.13;;;6.02;57.66
50590;BME280;36547;50.514;30.840;2023-04-29T03:33:42;100364.67;;;6.05;57.66
50590;BME280;36547;50.514;30.840;2023-04-29T03:34:44;100361.09;;;6.06;57.50
50590;BME280;36547;50.514;30.840;2023-04-29T03:35:54;100368.22;;;6.04;57.58
50590;BME280;36547;50.514;30.840;2023-04-29T03:36:57;100362.83;;;6.07;57.42
50590;BME280;36547;50.514;30.840;2023-04-29T03:38:00;100368.02;;;6.10;57.53
50590;BME280;36547;50.514;30.840;2023-04-29T03:39:04;100367.93;;;6.13;57.48
50590;BME280;36547;50.514;30.840;2023-04-29T03:40:07;100368.80;;;6.14;57.18
50590;BME280;36547;50.514;30.840;2023-04-29T03:41:10;100368.80;;;6.14;57.21
50590;BME280;36547;50.514;30.840;2023-04-29T03:42:13;100368.75;;;6.15;57.29
50590;BME280;36547;50.514;30.840;2023-04-29T03:43:15;100365.16;;;6.18;57.38
50590;BME280;36547;50.514;30.840;2023-04-29T03:44:17;100369.58;;;6.17;57.08
50590;BME280;36547;50.514;30.840;2023-04-29T03:45:20;100367.84;;;6.16;57.16
50590;BME280;36547;50.514;30.840;2023-04-29T03:46:22;100366.98;;;6.16;57.43
50590;BME280;36547;50.514;30.840;2023-04-29T03:47:25;100369.58;;;6.17;57.32
50590;BME280;36547;50.514;30.840;2023-04-29T03:48:27;100371.30;;;6.18;57.17
50590;BME280;36547;50.514;30.840;2023-04-29T03:49:30;100378.20;;;6.22;57.26
50590;BME280;36547;50.514;30.840;2023-04-29T03:50:32;100372.92;;;6.22;57.02
50590;BME280;36547;50.514;30.840;2023-04-29T03:51:34;100376.37;;;6.24;57.02
50590;BME280;36547;50.514;30.840;2023-04-29T03:52:38;100370.28;;;6.22;57.10
50590;BME280;36547;50.514;30.840;2023-04-29T03:53:43;100379.92;;;6.23;56.79
50590;BME280;36547;50.514;30.840;2023-04-29T03:54:46;100374.65;;;6.23;56.55
50590;BME280;36547;50.514;30.840;2023-04-29T03:55:49;100377.41;;;6.20;57.02
50590;BME280;36547;50.514;30.840;2023-04-29T03:56:51;100377.33;;;6.22;57.19
50590;BME280;36547;50.514;30.840;2023-04-29T03:57:54;100379.92;;;6.23;56.97
50590;BME280;36547;50.514;30.840;2023-04-29T03:58:57;100380.79;;;6.24;56.88
50590;BME280;36547;50.514;30.840;2023-04-29T04:00:00;100377.29;;;6.23;56.62
50590;BME280;36547;50.514;30.840;2023-04-29T04:01:02;100378.94;;;6.27;56.82
50590;BME280;36547;50.514;30.840;2023-04-29T04:02:06;100376.30;;;6.27;56.63
50590;BME280;36547;50.514;30.840;2023-04-29T04:03:09;100378.84;;;6.30;56.67
50590;BME280;36547;50.514;30.840;2023-04-29T04:04:12;100379.66;;;6.32;56.71
50590;BME280;36547;50.514;30.840;2023-04-29T04:05:17;100372.57;;;6.34;56.75
50590;BME280;36547;50.514;30.840;2023-04-29T04:06:21;100373.41;;;6.35;56.79
50590;BME280;36547;50.514;30.840;2023-04-29T04:07:25;100371.58;;;6.37;56.44
50590;BME280;36547;50.514;30.840;2023-04-29T04:08:29;100381.19;;;6.39;56.49
50590;BME280;36547;50.514;30.840;2023-04-29T04:09:39;100386.37;;;6.43;56.54
50590;BME280;36547;50.514;30.840;2023-04-29T04:10:41;100383.73;;;6.43;56.46
50590;BME280;36547;50.514;30.840;2023-04-29T04:11:45;100388.02;;;6.47;56.42
50590;BME280;36547;50.514;30.840;2023-04-29T04:12:48;100383.56;;;6.49;56.67
50590;BME280;36547;50.514;30.840;2023-04-29T04:13:50;100387.90;;;6.50;56.43
50590;BME280;36547;50.514;30.840;2023-04-29T04:14:53;100387.81;;;6.53;56.37
50590;BME280;36547;50.514;30.840;2023-04-29T04:15:55;100393.91;;;6.55;56.11
50590;BME280;36547;50.514;30.840;2023-04-29T04:16:58;100389.45;;;6.57;55.96
50590;BME280;36547;50.514;30.840;2023-04-29T04:18:00;100395.55;;;6.59;56.25
50590;BME280;36547;50.514;30.840;2023-04-29T04:19:03;100396.37;;;6.61;56.09
50590;BME280;36547;50.514;30.840;2023-04-29T04:20:07;100401.61;;;6.62;56.10
50590;BME280;36547;50.514;30.840;2023-04-29T04:21:11;100398.84;;;6.65;56.24
50590;BME280;36547;50.514;30.840;2023-04-29T04:22:16;100399.75;;;6.64;55.93
50590;BME280;36547;50.514;30.840;2023-04-29T04:23:20;100398.10;;;6.62;55.88
50590;BME280;36547;50.514;30.840;2023-04-29T04:24:22;100394.47;;;6.64;55.98
50590;BME280;36547;50.514;30.840;2023-04-29T04:25:24;100399.70;;;6.66;56.07
50590;BME280;36547;50.514;30.840;2023-04-29T04:26:28;100398.75;;;6.68;56.22
50590;BME280;36547;50.514;30.840;2023-04-29T04:27:38;100400.39;;;6.72;56.00
50590;BME280;36547;50.514;30.840;2023-04-29T04:28:42;100396.80;;;6.75;55.70
50590;BME280;36547;50.514;30.840;2023-04-29T04:29:46;100398.52;;;6.76;55.78
50590;BME280;36547;50.514;30.840;2023-04-29T04:30:50;100395.76;;;6.79;55.67
50590;BME280;36547;50.514;30.840;2023-04-29T04:31:53;100397.48;;;6.80;55.34
50590;BME280;36547;50.514;30.840;2023-04-29T04:32:58;100399.13;;;6.84;55.46
50590;BME280;36547;50.514;30.840;2023-04-29T04:34:01;100400.90;;;6.84;55.25
50590;BME280;36547;50.514;30.840;2023-04-29T04:35:06;100395.57;;;6.85;55.31
50590;BME280;36547;50.514;30.840;2023-04-29T04:36:09;100398.17;;;6.87;55.17
50590;BME280;36547;50.514;30.840;2023-04-29T04:37:11;100402.49;;;6.89;55.38
50590;BME280;36547;50.514;30.840;2023-04-29T04:38:14;100402.40;;;6.92;55.22
50590;BME280;36547;50.514;30.840;2023-04-29T04:39:17;100403.19;;;6.94;55.18
50590;BME280;36547;50.514;30.840;2023-04-29T04:40:19;100397.85;;;6.96;55.08
50590;BME280;36547;50.514;30.840;2023-04-29T04:41:36;100394.25;;;6.98;55.19
50590;BME280;36547;50.514;30.840;2023-04-29T04:42:39;100398.53;;;7.02;55.17
50590;BME280;36547;50.514;30.840;2023-04-29T04:43:42;100397.57;;;7.05;54.75
50590;BME280;36547;50.514;30.840;2023-04-29T04:44:49;100396.48;;;7.10;54.83
50590;BME280;36547;50.514;30.840;2023-04-29T04:45:53;100399.94;;;7.13;54.98
50590;BME280;36547;50.514;30.840;2023-04-29T04:46:56;100391.00;;;7.17;55.02
50590;BME280;36547;50.514;30.840;2023-04-29T04:48:09;100401.48;;;7.20;55.00
50590;BME280;36547;50.514;30.840;2023-04-29T04:49:14;100403.89;;;7.26;54.78
50590;BME280;36547;50.514;30.840;2023-04-29T04:50:21;100404.70;;;7.28;53.85
50590;BME280;36547;50.514;30.840;2023-04-29T04:51:24;100402.78;;;7.33;53.69
50590;BME280;36547;50.514;30.840;2023-04-29T04:52:28;100410.53;;;7.37;53.25
50590;BME280;36547;50.514;30.840;2023-04-29T04:53:32;100405.14;;;7.40;53.21
50590;BME280;36547;50.514;30.840;2023-04-29T04:54:36;100401.48;;;7.44;53.07
50590;BME280;36547;50.514;30.840;2023-04-29T04:55:40;100396.96;;;7.48;52.61
50590;BME280;36547;50.514;30.840;2023-04-29T04:56:43;100400.28;;;7.53;52.59
50590;BME280;36547;50.514;30.840;2023-04-29T04:57:45;100401.05;;;7.57;52.12
50590;BME280;36547;50.514;30.840;2023-04-29T04:58:47;100403.54;;;7.61;52.22
50590;BME280;36547;50.514;30.840;2023-04-29T04:59:49;100403.44;;;7.64;51.96
50590;BME280;36547;50.514;30.840;2023-04-29T05:00:52;100399.74;;;7.68;52.34
50590;BME280;36547;50.514;30.840;2023-04-29T05:01:55;100397.86;;;7.72;52.05
50590;BME280;36547;50.514;30.840;2023-04-29T05:02:57;100392.41;;;7.76;51.77
50590;BME280;36547;50.514;30.840;2023-04-29T05:04:02;100396.65;;;7.80;52.01
50590;BME280;36547;50.514;30.840;2023-04-29T05:05:05;100397.41;;;7.84;50.78
50590;BME280;36547;50.514;30.840;2023-04-29T05:06:09;100397.25;;;7.89;50.23
50590;BME280;36547;50.514;30.840;2023-04-29T05:07:13;100400.66;;;7.92;49.75
50590;BME280;36547;50.514;30.840;2023-04-29T05:08:23;100397.00;;;7.95;49.26
50590;BME280;36547;50.514;30.840;2023-04-29T05:09:26;100390.73;;;7.97;49.09
50590;BME280;36547;50.514;30.840;2023-04-29T05:10:29;100395.06;;;8.00;49.50
50590;BME280;36547;50.514;30.840;2023-04-29T05:11:33;100395.81;;;8.03;49.33
50590;BME280;36547;50.514;30.840;2023-04-29T05:12:43;100391.28;;;8.07;48.92
50590;BME280;36547;50.514;30.840;2023-04-29T05:13:46;100399.89;;;8.12;48.71
50590;BME280;36547;50.514;30.840;2023-04-29T05:14:53;100394.48;;;8.15;48.94
50590;BME280;36547;50.514;30.840;2023-04-29T05:15:56;100390.81;;;8.19;48.66
50590;BME280;36547;50.514;30.840;2023-04-29T05:17:01;100399.42;;;8.24;48.80
50590;BME280;36547;50.514;30.840;2023-04-29T05:18:03;100396.55;;;8.30;48.88
50590;BME280;36547;50.514;30.840;2023-04-29T05:19:06;100397.39;;;8.32;47.52
50590;BME280;36547;50.514;30.840;2023-04-29T05:20:11;100393.71;;;8.36;47.25
50590;BME280;36547;50.514;30.840;2023-04-29T05:21:14;100402.38;;;8.40;47.16
50590;BME280;36547;50.514;30.840;2023-04-29T05:22:18;100399.67;;;8.41;47.17
50590;BME280;36547;50.514;30.840;2023-04-29T05:23:21;100401.34;;;8.44;46.86
50590;BME280;36547;50.514;30.840;2023-04-29T05:24:24;100403.07;;;8.45;46.98
50590;BME280;36547;50.514;30.840;2023-04-29T05:25:26;100398.52;;;8.48;47.41
50590;BME280;36547;50.514;30.840;2023-04-29T05:26:29;100394.95;;;8.49;47.21
50590;BME280;36547;50.514;30.840;2023-04-29T05:27:33;100401.89;;;8.52;47.49
50590;BME280;36547;50.514;30.840;2023-04-29T05:28:38;100402.64;;;8.56;48.27
50590;BME280;36547;50.514;30.840;2023-04-29T05:29:42;100400.74;;;8.59;48.25
50590;BME280;36547;50.514;30.840;2023-04-29T05:30:46;100399.77;;;8.62;48.22
50590;BME280;36547;50.514;30.840;2023-04-29T05:31:49;100397.00;;;8.65;47.88
50590;BME280;36547;50.514;30.840;2023-04-29T05:32:52;100402.15;;;8.68;47.64
50590;BME280;36547;50.514;30.840;2023-04-29T05:33:55;100401.23;;;8.69;47.29
50590;BME280;36547;50.514;30.840;2023-04-29T05:34:59;100401.97;;;8.72;47.65
50590;BME280;36547;50.514;30.840;2023-04-29T05:36:02;100397.54;;;8.73;47.18
50590;BME280;36547;50.514;30.840;2023-04-29T05:37:06;100400.99;;;8.75;46.90
50590;BME280;36547;50.514;30.840;2023-04-29T05:38:10;100399.16;;;8.77;47.41
50590;BME280;36547;50.514;30.840;2023-04-29T05:39:18;100392.01;;;8.79;47.63
50590;BME280;36547;50.514;30.840;2023-04-29T05:40:22;100393.58;;;8.83;48.09
50590;BME280;36547;50.514;30.840;2023-04-29T05:41:25;100397.04;;;8.85;48.40
50590;BME280;36547;50.514;30.840;2023-04-29T05:42:32;100401.30;;;8.89;48.16
50590;BME280;36547;50.514;30.840;2023-04-29T05:43:35;100405.55;;;8.93;47.23